• Join FlightAware (Why Join?)
  • Login
  • US Flag 
12:38PM EDT


 

Airport Tracker/Info


-or-


 

Live Flight TrackerFlight Track Log ✈ FEX100 ✈ 23-Aug-2013 ✈ CYAM - CYEL

Flight Track Log - Related Links

Times and Time Zones

All times are in EDT time to prevent confusion due to time zone crossing. See the FEX100 flight status page for this flight to view local times or setup timezone preferences in your user account.

Time Position Orientation Groundspeed Altitude Reporting Facility
EDT Latitude Longitude Course Direction KTS MPH feet Rate Location/Type
05:48PM 46.4667 -84.5000 296° West 10 12 600  Level Toronto Center
05:49PM 46.4833 -84.5500 296° West 130 150 1,500 1,320 Climbing Toronto Center
05:51PM 46.5000 -84.5000 64° Northeast 150 173 4,200 1,620 Climbing Toronto Center
05:52PM 46.4833 -84.4333 110° East 160 184 6,000 1,800 Climbing Toronto Center
05:53PM 46.4833 -84.3833 90° East 160 184 7,800 1,680 Climbing Toronto Center
05:54PM 46.4667 -84.3000 106° East 170 196 9,400 1,440 Climbing Toronto Center
05:55PM 46.4833 -84.2333 70° East 170 196 10,700 780 Climbing Toronto Center
05:56PM 46.4667 -84.1667 110° East 200 230 11,000 120 Climbing Toronto Center
05:57PM 46.4667 -84.0667 90° East 230 265 11,000  Level Toronto Center
05:58PM 46.4500 -83.9667 104° East 240 276 11,000  Level Toronto Center
05:59PM 46.4333 -83.8667 104° East 240 276 11,000  Level Toronto Center
06:00PM 46.4500 -83.7667 76° East 240 276 11,000  Level Toronto Center
06:01PM 46.4333 -83.6667 104° East 250 288 11,000  Level Toronto Center
06:02PM 46.4333 -83.5833 90° East 250 288 11,000  Level Toronto Center
06:03PM 46.4167 -83.4833 104° East 250 288 11,000  Level Toronto Center
06:04PM 46.4167 -83.3833 90° East 250 288 11,000 -480 Level Toronto Center
06:05PM 46.4167 -83.2667 90° East 250 288 10,100 -1,380 Descending Toronto Center
06:06PM 46.4000 -83.1667 104° East 280 322 8,300 -1,800 Descending Toronto Center
06:07PM 46.3833 -83.0333 100° East 280 322 6,600 -1,500 Descending Toronto Center
06:08PM 46.3667 -82.9500 106° East 280 322 5,400 -1,260 Descending Toronto Center
06:09PM 46.3500 -82.8500 104° East 270 311 4,100 -1,320 Descending Toronto Center
06:11PM 46.3500 -82.7002 90° East  Level FlightAware Approximate
06:18PM 46.3514 -82.5614 90° East  Level Estimated